PHMZE EHLE-EHLE
Flight info
| Callsign | PHMZE |
|---|---|
| Flight time | N/A |
| Altitude | 8000 |
| Route | DCT 522608N0053210E 522442N0053502E DCT 522140N0053706E 5223N00543E 522659N0055039E DCT LE120 DCT LE107 DCT 523643N0053841E 523946N0053538E 523438N0053142E 523253N0053152E DCT 522821N0052910E DCT |
| Aircraft | DA40/L-SBDGRY/S |
Departure
| Time | 2026-04-12 12:37 |
|---|---|
| Airport | Lelystad Airport (EHLE) |
Arrival
| Time | N/A |
|---|---|
| Airport | Lelystad Airport (EHLE) |
| Time | Latitude | Longitude | Altitude | Speed | Heading |
|---|---|---|---|---|---|
| 2026-04-12 12:22 | 52.45232 | 5.51775 | -10 ft | 0 kts | 137° |
| 2026-04-12 12:28 | 52.45231 | 5.51776 | -10 ft | 0 kts | 162° |
| 2026-04-12 12:28 | 52.45226 | 5.51769 | -10 ft | 1 kts | 230° |
| 2026-04-12 12:31 | 52.45220 | 5.51736 | -9 ft | 7 kts | 307° |
| 2026-04-12 12:32 | 52.45266 | 5.51744 | -10 ft | 12 kts | 50° |
| 2026-04-12 12:32 | 52.45336 | 5.51869 | -10 ft | 18 kts | 45° |
| 2026-04-12 12:32 | 52.45396 | 5.51977 | -10 ft | 21 kts | 47° |
| 2026-04-12 12:32 | 52.45539 | 5.52238 | -10 ft | 25 kts | 47° |
| 2026-04-12 12:33 | 52.45662 | 5.52459 | -9 ft | 27 kts | 47° |
| 2026-04-12 12:33 | 52.45762 | 5.52622 | -10 ft | 13 kts | 20° |
| 2026-04-12 12:33 | 52.45809 | 5.52580 | -9 ft | 0 kts | 255° |
| 2026-04-12 12:35 | 52.45807 | 5.52573 | -9 ft | 5 kts | 254° |
| 2026-04-12 12:36 | 52.45855 | 5.52467 | -8 ft | 17 kts | 306° |
| 2026-04-12 12:36 | 52.45753 | 5.52228 | -7 ft | 55 kts | 227° |
| 2026-04-12 12:36 | 52.45394 | 5.51603 | 130 ft | 86 kts | 228° |
| 2026-04-12 12:36 | 52.44957 | 5.50835 | 357 ft | 96 kts | 228° |
| 2026-04-12 12:37 | 52.44495 | 5.50005 | 615 ft | 99 kts | 229° |
| 2026-04-12 12:37 | 52.44026 | 5.49167 | 908 ft | 101 kts | 228° |
| 2026-04-12 12:37 | 52.43490 | 5.48438 | 1163 ft | 105 kts | 200° |
| 2026-04-12 12:37 | 52.42807 | 5.48825 | 1220 ft | 116 kts | 125° |
| 2026-04-12 12:38 | 52.42836 | 5.50083 | 1285 ft | 117 kts | 53° |
| 2026-04-12 12:38 | 52.43401 | 5.51073 | 1297 ft | 120 kts | 47° |
| 2026-04-12 12:38 | 52.43888 | 5.52150 | 1347 ft | 115 kts | 72° |
| 2026-04-12 12:38 | 52.43672 | 5.53334 | 1336 ft | 115 kts | 133° |
| 2026-04-12 12:39 | 52.43131 | 5.54311 | 1242 ft | 118 kts | 134° |
| 2026-04-12 12:39 | 52.42571 | 5.55306 | 1135 ft | 120 kts | 135° |
| 2026-04-12 12:39 | 52.41992 | 5.56288 | 1059 ft | 119 kts | 136° |
| 2026-04-12 12:39 | 52.41407 | 5.57239 | 966 ft | 119 kts | 137° |
| 2026-04-12 12:40 | 52.40812 | 5.58175 | 907 ft | 117 kts | 137° |
| 2026-04-12 12:40 | 52.40238 | 5.59092 | 836 ft | 116 kts | 136° |
| 2026-04-12 12:40 | 52.39657 | 5.59892 | 929 ft | 105 kts | 159° |
| 2026-04-12 12:40 | 52.38972 | 5.60200 | 962 ft | 101 kts | 166° |
| 2026-04-12 12:41 | 52.38320 | 5.60621 | 980 ft | 107 kts | 147° |
| 2026-04-12 12:41 | 52.37739 | 5.61486 | 991 ft | 118 kts | 138° |
| 2026-04-12 12:41 | 52.37132 | 5.62446 | 966 ft | 123 kts | 136° |
| 2026-04-12 12:41 | 52.36698 | 5.63001 | 965 ft | 116 kts | 160° |
| 2026-04-12 12:42 | 52.35955 | 5.63245 | 1047 ft | 98 kts | 175° |
| 2026-04-12 12:42 | 52.34729 | 5.62783 | 977 ft | 99 kts | 257° |
| 2026-04-12 12:42 | 52.34949 | 5.61733 | 857 ft | 107 kts | 315° |